Share

Pago Pago, AS

12:02 AM SST on April 24, 2014 (GMT -1100)
Kona International At Keahole (PHKO) Elev 43 ft | 19.74 °N, 156.05 °W | Change Station

Current weather conditions updated 9 minutes ago

Overcast
Overcast
77 °F
Feels Like 77 °F
N
0
Wind Variable Wind from North
Sunrise 6:30 AM
Sunset 6:10 PM
Moon Waning Crescent

Today is forecast to be nearly the same temperature as yesterday.

Pressure 30.03 in
Visibility 10.0 miles
Clouds Few 2100 ft
Mostly Cloudy 2700 ft
Overcast 3300 ft
Dew Point 65 °F
Humidity 66%
Rainfall 0.00 in
Snow Depth Not available.
UV 0 out of 16
Pollen Not available.
Air Quality Not available.
Flu Activity
METAR PHKO 241053Z AUTO 00000KT 10SM FEW021 BKN027 OVC033 25/18 A3003 RMK AO2 SLP169 T02500183 TSNO

More Conditions Fewer Conditions

Pressure 30.03 in
Visibility 10.0 miles
Clouds Few 2100 ft
Mostly Cloudy 2700 ft
Overcast 3300 ft
Dew Point 65 °F
Humidity 66%
Rainfall 0.00 in
Snow Depth Not available.
UV 0 out of 16
Pollen Not available.
Air Quality Not available.
Flu Activity
METAR PHKO 241053Z AUTO 00000KT 10SM FEW021 BKN027 OVC033 25/18 A3003 RMK AO2 SLP169 T02500183 TSNO

More Conditions Fewer Conditions

10-Day Weather Forecast

Almanac

Astronomy

Apr. 24, 2014 Rise Set
Actual Time 6:30 AM SST 6:10 PM SST
Civil Twilight 6:09 AM SST 6:32 PM SST
Nautical Twilight 5:43 AM SST 6:57 PM SST
Astronomical Twilight 5:18 AM SST 7:23 PM SST
Moon 2:23 AM SST 2:58 PM SST
Length of Visible Light 12h 23m
Length of Day
11h 39m
Tomorrow will be 0m 42s shorter.
Waning Crescent, 27% of the Moon is Illuminated
Today
Waning Crescent
Apr 29
New
May 6
First Quarter
May 14
Full
May 21
Last Quarter

Community

  • Stacked
    Stacked
  • clouds approaching Red Sox Nation
    clouds approaching Red Sox Nation
  • Balance
    Balance
  • Nestled In
    Nestled In
  • Stunning Sunrise
    Stunning Sunrise

WunderPhotos

Upload Photos

1,704,584 photos uploaded!

WunderBlogs® & News

Nearby

Snow Depth

Station Depth Elevation
No new snow has been reported.

Coastal Water Temperatures

Place Temperature
No Stations Reporting

Earthquake Activity

City Distance Mag. Time & Date
No recent earthquake activity has been reported nearby.
Minimum magnitude displayed is 2.5.

Nearby Weather Stations

There are no personal weather stations in this area.

What do you think?

We're not finished. Please let us know what you like, what you don't like, and what you are still missing.